Flight Track Log - Related Links

Times and Time Zones

All times are in EDT time to prevent confusion due to time zone crossing. See the EJA122 flight status page for this flight to view local times or setup timezone preferences in your user account.

Time Position Orientation Groundspeed Altitude Reporting Facility
EDT Latitude Longitude Course Direction KTS km/h feet Rate Location/Type
Sat 19:01:29 42.9956 -108.3639 114° Southeast 247 457 8.600  Level Salt Lake Center
Sat 19:02:31 42.9128 -108.3039 152° Southeast 295 546 10.800 1.854 Climbing Salt Lake Center
Sat 19:03:32 42.8392 -108.2594 156° South 300 555 12.400 1.415 Climbing Salt Lake Center
Sat 19:04:00 41.4435 -106.8275 114° Southeast  Level Estimated
Sat 19:04:34 42.7661 -108.2111 154° Southeast 302 560 13.700  Level Salt Lake Center
Sat 19:05:00 41.4435 -106.8275 114° Southeast  Level Estimated
Sat 19:05:35 42.6825 -108.1578 155° Southeast 298 552 15.000  Level Salt Lake Center
Sat 19:06:00 41.4435 -106.8275 114° Southeast  Level Estimated
Sat 19:06:37 42.6053 -108.1114 156° South 310 575 14.900  Level Salt Lake Center
Sat 19:07:38 42.5036 -108.0472 155° Southeast 348 644 14.800 -49 Descending Salt Lake Center
Sat 19:08:40 42.4194 -107.9919 154° Southeast 352 652 14.800 49 Level Salt Lake Center
Sat 19:09:41 42.3456 -107.9447 155° Southeast 323 599 14.900 98 Climbing Salt Lake Center
Sat 19:10:43 42.2617 -107.8947 156° South 299 554 15.000 49 Climbing Salt Lake Center
Sat 19:11:44 42.1914 -107.8492 154° Southeast 294 544 15.000  Level Salt Lake Center
Sat 19:12:45 42.1067 -107.7975 156° South 297 550 15.000  Level Salt Lake Center
Sat 19:13:20 42.0669 -107.7719 154° Southeast 310 575 15.000  Level Denver Center
Sat 19:14:22 41.9725 -107.7147 156° South 324 600 15.000 -49 Level Denver Center
Sat 19:15:23 41.8994 -107.6689 155° Southeast 320 592 14.900 -49 Descending Denver Center
Sat 19:16:25 41.8317 -107.6292 156° South 303 562 14.900 -145 Level Denver Center
Sat 19:17:27 41.7567 -107.5797 154° Southeast 285 528 14.600 -823 Descending Denver Center
Sat 19:18:29 41.7200 -107.4914 119° Southeast 284 526 13.200 -1.610 Descending Denver Center
Sat 19:19:30 41.6761 -107.3867 119° Southeast 286 529 11.300 -1.073 Descending Denver Center
Sat 19:20:32 41.6378 -107.2903 118° Southeast 297 550 11.000 -97 Descending Denver Center
Sat 19:21:34 41.6050 -107.2144 120° Southeast 298 552 11.100  Climbing Denver Center
Sat 19:22:48 41.5553 -107.0936 119° Southeast 294 544 11.000 -353 Descending Denver Center
Sat 19:23:50 41.5047 -106.9742 119° Southeast 292 541 10.300 -677 Descending Denver Center

Login

Don't have an account? Register now (free) for customized features, flight alerts, and more!